Niceville, Florida
Current Conditions -  °F | °C
As of 10:56 AM on Thursday 30 Oct 2014 (Local Time) from KVPS Reporting Station
Few Clouds Few Clouds  
Wind Chill: 68°   Ceiling: Unl
Heat Index: 68°   Visibility: 10mi
Dew Point: 43°   Wind: 13mph
Humidity: 40%   Direction: 50°NE
Pressure: 30.07"   Gusts: NA
Location:  30.52°N, 86.49°W
Report Text: KVPS 301556Z 05011KT 10SM FEW065 FEW250 20/06 A3007 RMK AO2A SLP185 T02020061 $
Loading
Personal Weather Stations






























Interactive Weather Map
Tropical Storm Tracking
New forecast layout! Learn more

10-Day Weather Forecast

Advertisements
Track Severe Weather on mobile